Time;durP1;ratioP1;P1;durP2;ratioP2;P2;SDS_P1;SDS_P2;PMS_P1;PMS_P2;Temp;Humidity;BMP_temperature;BMP_pressure;BME280_temperature;BME280_humidity;BME280_pressure;Samples;Min_cycle;Max_cycle;Signal;HPM_P1;HPM_P2
2023/01/20 00:03:09;;;;;;;7.13;5.30;;;3.30;99.90;;;;;;9981755;28;20384;-56
2023/01/20 00:08:00;;;;;;;8.32;5.88;;;3.20;99.90;;;;;;9982229;28;20049;-57
2023/01/20 00:12:51;;;;;;;11.73;5.40;;;3.20;99.90;;;;;;9980872;28;20477;-59
2023/01/20 00:17:41;;;;;;;14.68;5.25;;;3.20;99.90;;;;;;9994910;28;20501;-56
2023/01/20 00:22:33;;;;;;;8.73;5.03;;;3.30;99.90;;;;;;9995031;28;20047;-60
2023/01/20 00:27:23;;;;;;;14.15;7.03;;;3.40;99.90;;;;;;9982197;28;20271;-60
2023/01/20 00:32:14;;;;;;;9.30;5.97;;;3.30;99.90;;;;;;9982433;28;20725;-58
2023/01/20 00:37:05;;;;;;;9.10;6.05;;;3.40;99.90;;;;;;9981699;28;20030;-60
2023/01/20 00:41:55;;;;;;;14.25;6.28;;;3.40;99.90;;;;;;9980944;28;20129;-58
2023/01/20 00:46:46;;;;;;;10.60;5.47;;;3.40;99.90;;;;;;9981555;28;20129;-57
2023/01/20 00:51:37;;;;;;;11.43;6.40;;;3.40;99.90;;;;;;9980920;28;20031;-58
2023/01/20 00:56:27;;;;;;;11.52;6.55;;;3.40;99.90;;;;;;9980662;28;20443;-53
2023/01/20 01:01:18;;;;;;;11.55;6.32;;;3.40;99.90;;;;;;9980412;28;20065;-60
2023/01/20 01:06:12;;;;;;;9.93;6.40;;;3.40;99.90;;;;;;9965146;28;20121;-55
2023/01/20 01:11:04;;;;;;;14.73;6.13;;;3.40;99.90;;;;;;9977783;28;20038;-52
2023/01/20 01:15:54;;;;;;;12.60;5.80;;;3.30;99.90;;;;;;9982745;28;20034;-56
2023/01/20 01:20:45;;;;;;;8.48;5.22;;;3.20;99.90;;;;;;9986166;28;20121;-55
2023/01/20 01:25:36;;;;;;;8.82;5.13;;;3.20;99.90;;;;;;9980745;28;20022;-56
2023/01/20 01:30:27;;;;;;;12.32;6.03;;;3.20;99.90;;;;;;9980204;28;20515;-56
2023/01/20 01:35:18;;;;;;;9.45;5.90;;;3.20;99.90;;;;;;9979377;28;20026;-56
2023/01/20 01:40:09;;;;;;;10.60;5.97;;;3.20;99.90;;;;;;9979305;28;20050;-58
2023/01/20 01:45:12;;;;;;;10.27;5.68;;;3.20;99.90;;;;;;9979346;28;20026;-56
2023/01/20 01:50:02;;;;;;;10.60;5.20;;;3.10;99.90;;;;;;9979281;28;20082;-57
2023/01/20 01:54:54;;;;;;;12.43;6.13;;;3.00;99.90;;;;;;9978844;28;20448;-58
2023/01/20 01:59:45;;;;;;;11.88;5.47;;;3.00;99.90;;;;;;9979086;28;20057;-56
2023/01/20 02:04:37;;;;;;;10.45;6.07;;;3.00;99.90;;;;;;9978206;28;20027;-56
2023/01/20 02:09:28;;;;;;;11.45;5.88;;;3.00;99.90;;;;;;9978148;28;20034;-54
2023/01/20 02:14:29;;;;;;;13.40;6.15;;;2.90;99.90;;;;;;9977750;28;20399;-53
2023/01/20 02:19:22;;;;;;;10.25;6.20;;;2.90;99.90;;;;;;9977722;28;20266;-54
2023/01/20 02:24:34;;;;;;;8.60;5.45;;;2.90;99.90;;;;;;9977618;28;20125;-55
2023/01/20 02:30:02;;;;;;;8.00;4.93;;;3.00;99.90;;;;;;9968150;28;20130;-55
2023/01/20 02:35:13;;;;;;;7.18;4.95;;;3.00;99.90;;;;;;9971780;28;20030;-55
2023/01/20 02:40:22;;;;;;;7.68;4.63;;;3.10;99.90;;;;;;9977355;28;20026;-55
2023/01/20 02:45:24;;;;;;;10.73;6.03;;;3.00;99.90;;;;;;9977117;28;20034;-53
2023/01/20 02:50:35;;;;;;;9.32;5.25;;;3.00;99.90;;;;;;9977303;28;20061;-55
2023/01/20 02:55:41;;;;;;;9.50;5.25;;;3.00;99.90;;;;;;9967487;28;20015;-53
2023/01/20 03:00:50;;;;;;;11.63;5.40;;;3.00;99.90;;;;;;9980769;28;20030;-55
2023/01/20 03:05:48;;;;;;;9.40;5.15;;;3.10;99.90;;;;;;9961126;28;20077;-57
2023/01/20 03:10:41;;;;;;;15.57;6.60;;;3.00;99.90;;;;;;9976716;28;20520;-56
2023/01/20 03:15:42;;;;;;;10.63;6.28;;;3.00;99.90;;;;;;9976256;28;20035;-57
2023/01/20 03:20:32;;;;;;;13.18;6.28;;;3.00;99.90;;;;;;9976812;28;20040;-56
2023/01/20 03:25:24;;;;;;;10.93;7.10;;;2.90;99.90;;;;;;9977013;28;20030;-57
2023/01/20 03:30:16;;;;;;;13.40;7.40;;;2.90;99.90;;;;;;9961156;28;20088;-53
2023/01/20 03:35:07;;;;;;;10.93;5.95;;;2.80;99.90;;;;;;9976324;28;20037;-55
2023/01/20 03:39:58;;;;;;;11.07;6.15;;;2.80;99.90;;;;;;9976204;28;20065;-57
2023/01/20 03:44:55;;;;;;;15.00;7.28;;;2.80;99.90;;;;;;9976419;28;20055;-56
2023/01/20 03:50:18;;;;;;;14.13;7.43;;;2.70;99.90;;;;;;9983481;28;20117;-53
2023/01/20 03:55:14;;;;;;;18.52;8.20;;;2.70;99.90;;;;;;9982339;28;20073;-50
2023/01/20 04:00:07;;;;;;;17.02;7.57;;;2.60;99.90;;;;;;9983446;28;20022;-56
2023/01/20 04:05:00;;;;;;;14.70;6.47;;;2.70;99.90;;;;;;9983509;28;20088;-55
2023/01/20 04:09:55;;;;;;;15.25;7.80;;;2.60;99.90;;;;;;9980563;28;20037;-56
2023/01/20 04:14:46;;;;;;;14.00;7.90;;;2.70;99.90;;;;;;9981273;28;20033;-56
2023/01/20 04:19:36;;;;;;;20.23;8.95;;;2.60;99.90;;;;;;9982143;28;20370;-54
2023/01/20 04:24:36;;;;;;;16.08;9.10;;;2.50;99.90;;;;;;9981366;28;20494;-56
2023/01/20 04:29:26;;;;;;;14.52;7.97;;;2.60;99.90;;;;;;9980948;28;20418;-56
2023/01/20 04:34:17;;;;;;;11.35;6.90;;;2.60;99.90;;;;;;9979224;28;20501;-56
2023/01/20 04:39:08;;;;;;;13.57;7.50;;;2.50;99.90;;;;;;9980830;28;20073;-55
2023/01/20 04:43:58;;;;;;;12.95;6.22;;;2.40;99.90;;;;;;9981361;28;20045;-58
2023/01/20 04:48:49;;;;;;;9.30;5.82;;;2.50;99.90;;;;;;9981083;28;20038;-56
2023/01/20 04:53:40;;;;;;;10.60;5.70;;;2.40;99.90;;;;;;9980989;28;20053;-60
2023/01/20 04:58:30;;;;;;;10.60;5.22;;;2.40;99.90;;;;;;9977654;28;20576;-56
2023/01/20 05:03:21;;;;;;;9.05;5.30;;;2.40;99.90;;;;;;9980177;28;20026;-58
2023/01/20 05:08:11;;;;;;;9.18;4.88;;;2.30;99.90;;;;;;9980620;28;20489;-55
2023/01/20 05:13:02;;;;;;;5.78;3.88;;;2.30;99.90;;;;;;9980207;28;20513;-57
2023/01/20 05:17:53;;;;;;;7.93;3.90;;;2.30;99.90;;;;;;9979931;28;20180;-56
2023/01/20 05:22:44;;;;;;;6.82;4.18;;;2.30;99.90;;;;;;9979764;28;20410;-56
2023/01/20 05:27:35;;;;;;;5.80;4.20;;;2.30;99.90;;;;;;9980233;28;20161;-59
2023/01/20 05:32:25;;;;;;;9.27;3.15;;;2.30;99.90;;;;;;9979209;28;20590;-53
2023/01/20 05:37:19;;;;;;;9.05;3.60;;;2.30;99.90;;;;;;9979010;28;20133;-50
2023/01/20 05:42:09;;;;;;;7.78;3.83;;;2.30;99.90;;;;;;9979169;28;20042;-58
2023/01/20 05:47:01;;;;;;;8.25;3.95;;;2.40;99.90;;;;;;9979252;28;20523;-57
2023/01/20 05:51:51;;;;;;;5.72;3.30;;;2.40;99.90;;;;;;9992007;28;20401;-54
2023/01/20 05:56:42;;;;;;;6.45;3.92;;;2.50;99.90;;;;;;9981228;28;20036;-55
2023/01/20 06:01:33;;;;;;;7.20;3.55;;;2.60;99.90;;;;;;9981380;28;20019;-54
2023/01/20 06:06:23;;;;;;;4.28;3.17;;;2.60;99.90;;;;;;9978355;28;20231;-55
2023/01/20 06:11:14;;;;;;;5.22;3.40;;;2.60;99.90;;;;;;9974160;28;20447;-53
2023/01/20 06:16:05;;;;;;;8.52;3.70;;;2.60;99.90;;;;;;9970802;28;20467;-51
2023/01/20 06:20:57;;;;;;;6.07;3.58;;;2.60;99.90;;;;;;9977588;28;20026;-54
2023/01/20 06:25:48;;;;;;;7.00;3.10;;;2.60;99.90;;;;;;9978617;28;20472;-54
2023/01/20 06:30:41;;;;;;;5.10;3.38;;;2.40;99.90;;;;;;9976919;28;20038;-54
2023/01/20 06:35:32;;;;;;;6.40;3.05;;;2.40;99.90;;;;;;9975505;28;20030;-54
2023/01/20 06:40:23;;;;;;;6.57;3.47;;;2.50;99.90;;;;;;9975209;28;20046;-53
2023/01/20 06:45:15;;;;;;;5.93;3.22;;;2.50;99.90;;;;;;9976678;28;20273;-54
2023/01/20 06:50:06;;;;;;;5.03;3.25;;;2.50;99.90;;;;;;9968854;28;20034;-55
2023/01/20 06:54:57;;;;;;;6.10;3.47;;;2.60;99.90;;;;;;9976713;28;20113;-55
2023/01/20 06:59:47;;;;;;;8.18;3.67;;;2.50;99.90;;;;;;9981373;28;20101;-55
2023/01/20 07:04:38;;;;;;;6.18;3.50;;;2.40;99.90;;;;;;9976370;28;20034;-56
2023/01/20 07:09:29;;;;;;;6.40;3.33;;;2.30;99.90;;;;;;9977223;28;20042;-55
2023/01/20 07:14:21;;;;;;;6.28;3.22;;;2.30;99.90;;;;;;9976980;28;20105;-55
2023/01/20 07:19:12;;;;;;;7.90;3.83;;;2.30;99.90;;;;;;9976525;28;20045;-58
2023/01/20 07:24:03;;;;;;;7.43;4.05;;;2.30;99.90;;;;;;9983484;28;20037;-55
2023/01/20 07:28:54;;;;;;;7.40;4.22;;;2.30;99.90;;;;;;9984402;28;20042;-55
2023/01/20 07:33:44;;;;;;;7.13;4.40;;;2.20;99.90;;;;;;9983515;28;20091;-56
2023/01/20 07:38:35;;;;;;;10.55;4.28;;;2.20;99.90;;;;;;9984121;28;20484;-57
2023/01/20 07:43:26;;;;;;;7.53;4.68;;;2.20;99.90;;;;;;9984089;28;20133;-66
2023/01/20 07:48:17;;;;;;;8.50;4.32;;;2.10;99.90;;;;;;9983484;28;20126;-56
2023/01/20 07:53:07;;;;;;;10.40;5.60;;;2.10;99.90;;;;;;9983359;28;20038;-61
2023/01/20 07:57:58;;;;;;;8.05;5.10;;;2.10;99.90;;;;;;9971582;28;20030;-53
2023/01/20 08:02:49;;;;;;;7.88;4.78;;;2.10;99.90;;;;;;9969929;28;20565;-57
2023/01/20 08:07:40;;;;;;;9.00;5.03;;;2.20;99.90;;;;;;9990277;28;20077;-55
2023/01/20 08:12:30;;;;;;;9.38;4.70;;;2.30;99.90;;;;;;9982216;28;20037;-58
2023/01/20 08:17:22;;;;;;;6.75;4.18;;;2.10;99.90;;;;;;9982615;28;20544;-56
2023/01/20 08:22:12;;;;;;;7.10;3.65;;;2.20;99.90;;;;;;9982830;28;20023;-53
2023/01/20 08:27:03;;;;;;;6.93;4.00;;;2.10;99.90;;;;;;9979688;28;20034;-55
2023/01/20 08:31:53;;;;;;;12.27;4.90;;;2.10;99.90;;;;;;9984707;28;20018;-56
2023/01/20 08:36:44;;;;;;;8.68;5.07;;;2.10;99.90;;;;;;9973771;28;20023;-51
2023/01/20 08:41:37;;;;;;;8.38;4.78;;;2.10;99.90;;;;;;9982200;28;20157;-56
2023/01/20 08:46:28;;;;;;;10.25;5.10;;;2.10;99.90;;;;;;9980808;28;20269;-55
2023/01/20 08:51:25;;;;;;;10.00;4.93;;;2.10;99.90;;;;;;9978989;28;20641;-61
2023/01/20 08:56:16;;;;;;;10.77;6.57;;;2.20;99.90;;;;;;9982722;28;20029;-56
2023/01/20 09:01:13;;;;;;;11.48;5.85;;;2.40;99.90;;;;;;9981434;28;20026;-54
2023/01/20 09:06:05;;;;;;;11.52;5.93;;;2.40;99.90;;;;;;9981671;28;20039;-53
2023/01/20 09:11:07;;;;;;;10.30;6.35;;;2.40;99.90;;;;;;9968999;28;20038;-55
2023/01/20 09:15:58;;;;;;;16.05;6.78;;;2.50;99.90;;;;;;9980623;28;20118;-51
2023/01/20 09:20:48;;;;;;;12.45;6.95;;;2.70;99.90;;;;;;9993061;28;20113;-55
2023/01/20 09:25:39;;;;;;;13.68;7.53;;;2.60;99.90;;;;;;9981176;28;20381;-52
2023/01/20 09:30:29;;;;;;;11.07;6.72;;;2.70;99.90;;;;;;9980026;28;20045;-52
2023/01/20 09:35:20;;;;;;;9.35;6.28;;;2.80;99.90;;;;;;9979997;28;20057;-53
2023/01/20 09:45:41;;;;;;;9.95;6.10;;;3.10;99.90;;;;;;9988445;28;20483;-54
2023/01/20 09:56:18;;;;;;;9.57;6.22;;;3.20;99.90;;;;;;9979737;28;20583;-53
2023/01/20 10:01:08;;;;;;;11.05;6.43;;;3.50;99.90;;;;;;9969608;28;20074;-57
2023/01/20 10:06:03;;;;;;;10.85;5.80;;;3.70;99.90;;;;;;9979149;28;20030;-53
2023/01/20 10:11:15;;;;;;;14.65;7.93;;;3.80;99.90;;;;;;9976226;28;20034;-60
2023/01/20 10:16:11;;;;;;;16.52;8.68;;;4.10;99.90;;;;;;9968695;28;20038;-59
2023/01/20 10:21:07;;;;;;;;;;;4.00;99.90;;;;;;9978635;28;20035;-57
2023/01/20 10:26:09;;;;;;;13.30;6.17;;;4.20;99.90;;;;;;9978703;28;20389;-57
2023/01/20 10:31:03;;;;;;;9.93;7.00;;;4.10;99.90;;;;;;9967757;28;20076;-57
2023/01/20 10:35:56;;;;;;;11.80;6.40;;;4.10;99.90;;;;;;9978018;28;20065;-56
2023/01/20 10:41:01;;;;;;;11.98;6.65;;;4.10;99.90;;;;;;9971086;28;20460;-56
2023/01/20 10:46:22;;;;;;;9.95;5.07;;;4.20;99.90;;;;;;9978189;28;20113;-56
2023/01/20 10:51:31;;;;;;;10.93;6.25;;;4.20;99.90;;;;;;9972100;28;20034;-52
2023/01/20 10:56:42;;;;;;;9.02;5.20;;;4.10;99.90;;;;;;9983721;28;20125;-56
2023/01/20 11:01:34;;;;;;;11.43;6.35;;;4.10;99.90;;;;;;9994253;28;20031;-54
2023/01/20 11:06:26;;;;;;;9.55;5.72;;;4.20;99.90;;;;;;9990118;28;20027;-57
2023/01/20 11:11:21;;;;;;;11.68;5.30;;;4.40;99.90;;;;;;9989247;28;20030;-57
2023/01/20 11:16:27;;;;;;;9.70;6.18;;;4.50;99.90;;;;;;9987901;28;21705;-55
2023/01/20 11:21:23;;;;;;;11.07;6.53;;;4.50;99.90;;;;;;9987989;28;20586;-54
2023/01/20 11:26:27;;;;;;;10.00;5.25;;;4.70;99.90;;;;;;9989664;28;20030;-56
2023/01/20 11:31:19;;;;;;;10.27;6.03;;;4.60;99.90;;;;;;9989397;28;20453;-55
2023/01/20 11:36:17;;;;;;;13.18;6.72;;;4.70;99.90;;;;;;9991484;28;20374;-54
2023/01/20 11:41:26;;;;;;;12.65;6.82;;;4.80;99.90;;;;;;9990382;28;20100;-54
2023/01/20 11:46:26;;;;;;;14.32;6.60;;;5.00;99.90;;;;;;9988874;28;20043;-58
2023/01/20 11:51:24;;;;;;;11.20;6.25;;;5.20;99.90;;;;;;9989926;28;20049;-62
2023/01/20 11:56:25;;;;;;;12.55;7.10;;;5.50;99.90;;;;;;9992668;28;20065;-55
2023/01/20 12:01:27;;;;;;;11.80;7.38;;;5.60;99.90;;;;;;9996005;28;20026;-57
2023/01/20 12:06:27;;;;;;;10.82;5.53;;;5.60;99.90;;;;;;9988750;28;20393;-53
2023/01/20 12:11:30;;;;;;;11.98;5.72;;;5.40;99.90;;;;;;9989024;28;20030;-63
2023/01/20 12:16:24;;;;;;;8.57;5.28;;;5.50;99.90;;;;;;9980953;28;20509;-59
2023/01/20 12:21:20;;;;;;;8.85;5.10;;;5.70;99.90;;;;;;9981157;28;20026;-57
2023/01/20 12:26:20;;;;;;;8.48;4.45;;;5.70;99.90;;;;;;9988278;28;20338;-61
2023/01/20 12:31:18;;;;;;;6.53;3.80;;;5.70;99.90;;;;;;9980900;28;20517;-64
2023/01/20 12:36:46;;;;;;;6.97;3.63;;;5.80;99.90;;;;;;9981417;28;20054;-61
2023/01/20 12:42:09;;;;;;;6.88;3.13;;;5.70;99.90;;;;;;9979345;28;20100;-59
2023/01/20 12:47:11;;;;;;;7.80;3.47;;;5.10;99.90;;;;;;9980975;28;20038;-57
2023/01/20 12:52:50;;;;;;;6.15;3.53;;;4.90;99.90;;;;;;9983074;28;20030;-63
2023/01/20 12:58:07;;;;;;;10.23;3.65;;;5.00;99.90;;;;;;9957758;28;20085;-66
2023/01/20 13:03:30;;;;;;;6.40;3.63;;;5.10;99.90;;;;;;9942793;28;20053;-61
2023/01/20 13:08:35;;;;;;;8.45;5.40;;;5.20;99.90;;;;;;9979403;28;20042;-60
2023/01/20 13:13:59;;;;;;;8.55;4.88;;;5.60;99.90;;;;;;9987827;28;20018;-66
2023/01/20 13:19:03;;;;;;;9.13;5.05;;;5.80;99.90;;;;;;9979017;28;20048;-62
2023/01/20 13:23:54;;;;;;;12.43;5.47;;;5.90;99.90;;;;;;9979427;28;20493;-63
2023/01/20 13:28:53;;;;;;;8.38;5.18;;;5.80;99.90;;;;;;9964818;28;20041;-59
2023/01/20 13:33:44;;;;;;;8.98;5.55;;;5.70;99.90;;;;;;9979590;28;20030;-62
2023/01/20 13:38:38;;;;;;;9.65;5.32;;;5.70;99.90;;;;;;9979537;28;20206;-59
2023/01/20 13:43:31;;;;;;;10.07;5.25;;;5.40;99.90;;;;;;9978226;28;20042;-60
2023/01/20 13:48:22;;;;;;;8.88;4.60;;;5.40;99.90;;;;;;9979043;28;20042;-61
2023/01/20 13:53:19;;;;;;;7.20;5.25;;;5.20;99.90;;;;;;9978902;28;20026;-60
2023/01/20 13:58:33;;;;;;;9.48;4.80;;;5.10;99.90;;;;;;9981620;28;20253;-60
2023/01/20 14:03:37;;;;;;;10.77;5.43;;;5.20;99.90;;;;;;9979093;28;20104;-54
2023/01/20 14:08:31;;;;;;;8.82;4.72;;;5.20;99.90;;;;;;9978524;28;20042;-59
2023/01/20 14:13:23;;;;;;;8.55;4.40;;;5.10;99.90;;;;;;9977605;28;20026;-54
2023/01/20 14:18:16;;;;;;;9.15;6.13;;;5.10;99.90;;;;;;9977595;28;20041;-54
2023/01/20 14:23:28;;;;;;;22.15;5.45;;;5.10;99.90;;;;;;9978194;28;20147;-62
2023/01/20 14:28:19;;;;;;;9.43;5.18;;;5.00;99.90;;;;;;9975733;28;20038;-61
2023/01/20 14:33:14;;;;;;;7.32;3.85;;;5.00;99.90;;;;;;9972107;28;20018;-60
2023/01/20 14:38:15;;;;;;;9.07;4.35;;;4.90;99.90;;;;;;9973269;28;20053;-60
2023/01/20 14:43:21;;;;;;;9.30;4.75;;;4.80;99.90;;;;;;9976736;28;20416;-61
2023/01/20 14:48:12;;;;;;;7.87;5.67;;;4.80;99.90;;;;;;9978707;28;20042;-60
2023/01/20 14:53:03;;;;;;;8.10;5.15;;;4.90;99.90;;;;;;9977609;28;20065;-55
2023/01/20 14:57:54;;;;;;;8.65;4.28;;;5.00;99.90;;;;;;9980229;28;20030;-53
2023/01/20 15:02:55;;;;;;;7.30;3.58;;;5.10;99.90;;;;;;9977259;28;20034;-57
2023/01/20 15:07:46;;;;;;;6.47;3.72;;;5.00;99.90;;;;;;9976636;28;20034;-58
2023/01/20 15:12:50;;;;;;;7.68;3.88;;;5.10;99.90;;;;;;9994498;28;20034;-55
2023/01/20 15:18:01;;;;;;;7.93;4.55;;;5.10;99.90;;;;;;9991964;28;20033;-54
2023/01/20 15:22:52;;;;;;;9.93;4.72;;;5.20;99.90;;;;;;10002231;28;20033;-66
2023/01/20 15:27:43;;;;;;;8.52;3.88;;;5.20;99.90;;;;;;9985002;28;20040;-56
2023/01/20 15:32:33;;;;;;;6.53;3.53;;;5.10;99.90;;;;;;9989054;28;20026;-56
2023/01/20 15:37:24;;;;;;;5.90;3.45;;;5.10;99.90;;;;;;9993766;28;20029;-60
2023/01/20 15:42:17;;;;;;;6.38;3.22;;;5.00;99.90;;;;;;9985876;28;20054;-59
2023/01/20 15:47:20;;;;;;;8.68;4.00;;;4.70;99.90;;;;;;9994070;28;20386;-59
2023/01/20 15:52:11;;;;;;;6.15;3.33;;;4.60;99.90;;;;;;9986892;28;20053;-56
2023/01/20 15:57:02;;;;;;;4.63;2.38;;;4.50;99.90;;;;;;9992838;28;20022;-58
2023/01/20 16:01:53;;;;;;;6.45;3.20;;;4.50;99.90;;;;;;9994136;28;20363;-57
2023/01/20 16:06:44;;;;;;;6.75;2.83;;;4.40;99.90;;;;;;10002802;28;20020;-58
2023/01/20 16:11:34;;;;;;;8.70;3.75;;;4.40;99.90;;;;;;9988793;28;20440;-61
2023/01/20 16:16:28;;;;;;;3.95;3.17;;;4.20;99.90;;;;;;9997463;28;20022;-58
2023/01/20 16:21:19;;;;;;;7.78;2.90;;;4.20;99.90;;;;;;9999318;28;20041;-60
2023/01/20 16:26:24;;;;;;;10.73;3.40;;;4.10;99.90;;;;;;9969267;28;20416;-58
2023/01/20 16:31:15;;;;;;;3.75;2.72;;;4.10;99.90;;;;;;9990685;28;20034;-61
2023/01/20 16:36:11;;;;;;;4.47;2.55;;;4.00;99.90;;;;;;9991850;28;20531;-54
2023/01/20 16:41:12;;;;;;;5.97;2.85;;;4.00;99.90;;;;;;9982006;28;20050;-73
2023/01/20 16:46:02;;;;;;;4.47;2.78;;;4.00;99.90;;;;;;9982535;28;20084;-61
2023/01/20 16:50:53;;;;;;;5.28;2.20;;;3.90;99.90;;;;;;9981506;28;20465;-51
2023/01/20 16:55:45;;;;;;;4.30;3.08;;;4.00;99.90;;;;;;9967334;28;20117;-55
2023/01/20 17:00:36;;;;;;;5.85;2.92;;;4.00;99.90;;;;;;9985503;28;20393;-62
2023/01/20 17:05:27;;;;;;;6.32;3.53;;;3.90;99.90;;;;;;9981074;28;20026;-57
2023/01/20 17:10:19;;;;;;;7.90;3.78;;;4.00;99.90;;;;;;9985232;28;20119;-55
2023/01/20 17:15:10;;;;;;;6.55;3.95;;;4.00;99.90;;;;;;9999481;28;20065;-57
2023/01/20 17:20:01;;;;;;;5.80;2.85;;;4.00;99.90;;;;;;10012460;28;20381;-65
2023/01/20 17:24:51;;;;;;;4.65;2.88;;;3.90;99.90;;;;;;9993274;28;20144;-59
2023/01/20 17:29:42;;;;;;;5.75;3.08;;;3.90;99.90;;;;;;9988121;28;20121;-61
2023/01/20 17:34:33;;;;;;;6.53;3.08;;;4.00;99.90;;;;;;9990506;28;20037;-65
2023/01/20 17:39:23;;;;;;;4.75;2.63;;;4.00;99.90;;;;;;9983806;28;20090;-63
2023/01/20 17:44:14;;;;;;;6.80;3.35;;;4.00;99.90;;;;;;9979167;28;20149;-60
2023/01/20 17:49:06;;;;;;;5.32;2.80;;;4.00;99.90;;;;;;9989635;28;20050;-62
2023/01/20 17:53:58;;;;;;;6.25;3.45;;;4.10;99.90;;;;;;9981226;28;20046;-61
2023/01/20 17:58:49;;;;;;;7.03;3.53;;;4.20;99.90;;;;;;9979902;28;20105;-61
2023/01/20 18:03:41;;;;;;;7.75;3.47;;;4.10;99.90;;;;;;9966515;28;20022;-60
2023/01/20 18:08:32;;;;;;;8.93;3.70;;;3.90;99.90;;;;;;9977799;28;20433;-63
2023/01/20 18:13:22;;;;;;;8.43;3.83;;;3.90;99.90;;;;;;10000535;28;20054;-61
2023/01/20 18:18:13;;;;;;;7.82;3.97;;;4.00;99.90;;;;;;10000369;28;20408;-62
2023/01/20 18:23:04;;;;;;;6.10;3.55;;;4.00;99.90;;;;;;10000523;28;20042;-60
2023/01/20 18:27:54;;;;;;;5.63;3.08;;;3.80;99.90;;;;;;9984749;28;20045;-61
2023/01/20 18:32:45;;;;;;;5.53;3.60;;;3.80;99.90;;;;;;9990100;28;20430;-64
2023/01/20 18:37:36;;;;;;;7.38;3.03;;;3.80;99.90;;;;;;9991161;28;20186;-60
2023/01/20 18:42:26;;;;;;;6.40;3.53;;;3.90;99.90;;;;;;9996685;28;20057;-60
2023/01/20 18:47:17;;;;;;;6.07;3.67;;;3.90;99.90;;;;;;9986142;28;20133;-61
2023/01/20 18:52:08;;;;;;;7.72;3.60;;;3.80;99.90;;;;;;9995740;28;20027;-64
2023/01/20 18:56:59;;;;;;;7.00;4.20;;;3.80;99.90;;;;;;9984545;28;20084;-61
2023/01/20 19:01:49;;;;;;;8.60;3.45;;;3.60;99.90;;;;;;9993351;28;20049;-61
2023/01/20 19:06:43;;;;;;;8.35;4.07;;;3.70;99.90;;;;;;9996376;28;20187;-61
2023/01/20 19:11:38;;;;;;;9.77;3.60;;;3.80;99.90;;;;;;9989019;28;20228;-60
2023/01/20 19:16:31;;;;;;;6.78;3.88;;;3.70;99.90;;;;;;9999357;28;20032;-62
2023/01/20 19:21:23;;;;;;;7.15;3.90;;;3.80;99.90;;;;;;10000591;28;20084;-62
2023/01/20 19:26:17;;;;;;;12.18;4.95;;;3.60;99.90;;;;;;9991378;28;20105;-61
2023/01/20 19:31:10;;;;;;;8.25;4.07;;;3.60;99.90;;;;;;9999460;28;20037;-61
2023/01/20 19:36:03;;;;;;;7.97;4.22;;;3.50;99.90;;;;;;9995188;28;20427;-63
2023/01/20 19:40:54;;;;;;;7.05;3.60;;;3.60;99.90;;;;;;9995169;28;20057;-61
2023/01/20 19:45:45;;;;;;;10.35;5.00;;;3.50;99.90;;;;;;10001483;28;20099;-62
2023/01/20 19:50:36;;;;;;;6.38;4.22;;;3.60;99.90;;;;;;9998828;28;20412;-61
2023/01/20 19:55:26;;;;;;;8.43;4.38;;;3.60;99.90;;;;;;9988957;28;20145;-62
2023/01/20 20:00:17;;;;;;;8.13;3.90;;;3.50;99.90;;;;;;9968356;28;20373;-60
2023/01/20 20:05:08;;;;;;;10.77;5.88;;;3.60;99.90;;;;;;10000225;28;20030;-61
2023/01/20 20:09:59;;;;;;;10.02;4.88;;;3.60;99.90;;;;;;9997329;28;20466;-61
2023/01/20 20:14:50;;;;;;;8.60;4.82;;;3.60;99.90;;;;;;10010698;28;20133;-61
2023/01/20 20:19:41;;;;;;;4.90;3.45;;;3.50;99.90;;;;;;10016403;28;20026;-62
2023/01/20 20:24:32;;;;;;;6.88;4.35;;;3.50;99.90;;;;;;10001653;28;20022;-62
2023/01/20 20:29:22;;;;;;;9.73;5.57;;;3.30;99.90;;;;;;9960925;28;20026;-61
2023/01/20 20:34:16;;;;;;;7.82;4.10;;;3.40;99.90;;;;;;9975989;28;20030;-60
2023/01/20 20:39:07;;;;;;;7.10;3.95;;;3.50;99.90;;;;;;9995118;28;20030;-60
2023/01/20 20:43:59;;;;;;;7.35;3.92;;;3.30;99.90;;;;;;9975155;28;20051;-61
2023/01/20 20:48:55;;;;;;;6.07;3.95;;;3.30;99.90;;;;;;9970556;28;20035;-61
2023/01/20 20:53:45;;;;;;;7.07;3.70;;;3.40;99.90;;;;;;9952816;28;20039;-61
2023/01/20 20:58:38;;;;;;;9.45;4.90;;;3.40;99.90;;;;;;9945611;28;20555;-61
2023/01/20 21:03:30;;;;;;;6.35;3.92;;;3.40;99.90;;;;;;9962560;28;20104;-59
2023/01/20 21:08:20;;;;;;;10.80;3.88;;;3.40;99.90;;;;;;9958073;28;20309;-59
2023/01/20 21:13:11;;;;;;;5.40;3.28;;;3.40;99.90;;;;;;9942729;28;20677;-58
2023/01/20 21:18:03;;;;;;;10.10;4.43;;;3.30;99.90;;;;;;9965376;28;20517;-57
2023/01/20 21:22:53;;;;;;;7.45;4.38;;;3.30;99.90;;;;;;9940812;28;20466;-59
2023/01/20 21:27:44;;;;;;;9.43;5.25;;;3.40;99.90;;;;;;9944661;28;20050;-62
2023/01/20 21:32:39;;;;;;;6.82;3.85;;;3.40;99.90;;;;;;9943034;28;20022;-61
2023/01/20 21:37:30;;;;;;;6.70;4.17;;;3.30;99.90;;;;;;9940424;28;20078;-57
2023/01/20 21:42:20;;;;;;;9.00;4.18;;;3.20;99.90;;;;;;9968847;28;20046;-62
2023/01/20 21:47:11;;;;;;;8.10;4.53;;;3.20;99.90;;;;;;10005829;28;20022;-58
2023/01/20 21:57:11;;;;;;;7.30;4.32;;;3.20;99.90;;;;;;9979805;28;20037;-60
2023/01/20 22:02:02;;;;;;;10.65;4.63;;;3.20;99.90;;;;;;9981581;28;20044;-61
2023/01/20 22:06:52;;;;;;;7.18;4.22;;;3.10;99.90;;;;;;9993406;28;20026;-60
2023/01/20 22:11:43;;;;;;;9.00;5.15;;;3.10;99.90;;;;;;9996320;28;20038;-62
2023/01/20 22:16:34;;;;;;;8.20;4.63;;;3.10;99.90;;;;;;10007855;28;20026;-60
2023/01/20 22:21:25;;;;;;;7.75;4.90;;;3.20;99.90;;;;;;9988583;28;20302;-61
2023/01/20 22:26:15;;;;;;;7.97;4.00;;;3.10;99.90;;;;;;9986942;28;20052;-58
2023/01/20 22:31:12;;;;;;;6.32;4.78;;;3.10;99.90;;;;;;9989510;28;20048;-58
2023/01/20 22:36:03;;;;;;;7.30;4.20;;;3.10;99.90;;;;;;9984985;28;20049;-56
2023/01/20 22:40:54;;;;;;;6.55;3.70;;;3.00;99.90;;;;;;9993961;28;20054;-56
2023/01/20 22:45:45;;;;;;;8.57;4.18;;;2.90;99.90;;;;;;10007720;28;20044;-57
2023/01/20 22:50:36;;;;;;;9.90;4.65;;;2.90;99.90;;;;;;10011035;28;20436;-59
2023/01/20 22:55:26;;;;;;;9.07;4.07;;;2.90;99.90;;;;;;9979844;28;20031;-57
2023/01/20 23:00:18;;;;;;;9.23;4.50;;;2.80;99.90;;;;;;9988261;28;20033;-57
2023/01/20 23:05:08;;;;;;;8.00;4.15;;;2.70;99.90;;;;;;9999353;28;20065;-56
2023/01/20 23:09:59;;;;;;;10.10;5.00;;;2.80;99.90;;;;;;9995640;28;20049;-58
2023/01/20 23:14:58;;;;;;;8.75;4.97;;;2.80;99.90;;;;;;9997766;28;20018;-60
2023/01/20 23:19:49;;;;;;;11.93;5.20;;;2.80;99.90;;;;;;9990598;28;20332;-58
2023/01/20 23:24:40;;;;;;;13.52;5.43;;;2.70;99.90;;;;;;9981690;28;20377;-57
2023/01/20 23:29:30;;;;;;;14.00;5.40;;;2.70;99.90;;;;;;9987605;28;20095;-57
2023/01/20 23:34:21;;;;;;;14.48;5.20;;;2.70;99.90;;;;;;9992867;28;20077;-58
2023/01/20 23:39:11;;;;;;;10.20;5.53;;;2.70;99.90;;;;;;9992358;28;20018;-58
2023/01/20 23:44:02;;;;;;;14.18;5.40;;;2.70;99.90;;;;;;10003457;28;20058;-57
2023/01/20 23:48:53;;;;;;;15.45;5.38;;;2.60;99.90;;;;;;10010199;28;20022;-58
2023/01/20 23:53:43;;;;;;;9.88;4.13;;;2.60;99.90;;;;;;9994105;28;20057;-57
2023/01/20 23:58:34;;;;;;;9.52;4.63;;;2.60;99.90;;;;;;9984358;28;20030;-57
